Terminal Aerodrome Forecast
Issued by NWS

Home | Current Version | Previous Version | Text Only | Print | Product List | Glossary On
Versions: 1 2 3 4 5 6 7 8 9 10 11 12 13 14 15 16 17 18 19
034
FTUS43 KICT 212334
TAFRSL
TAF
KRSL 212334Z 2200/2224 06011KT P6SM VCSH OVC050
     FM220300 07008KT 3SM -SN OVC025
     FM220700 06007KT 2SM -SNPL OVC015
     FM221200 07006KT 2SM -FZDZSN OVC007
     FM221700 09006KT P6SM OVC012
     FM222100 15011KT P6SM OVC015=

USA.gov is the U.S. government's official web portal to all federal, state and local government web resources and services.